createdAt,value
2023-02-25T00:00:39.890Z,31.12
2023-02-25T00:01:39.917Z,33.42
2023-02-25T00:02:39.971Z,31.98
2023-02-25T00:03:39.902Z,34.12
2023-02-25T00:04:39.858Z,34.30
2023-02-25T00:05:40.718Z,36.64
2023-02-25T00:06:40.746Z,33.41
2023-02-25T00:55:31.271Z,25.00
2023-02-25T00:56:32.307Z,25.00
2023-02-25T00:57:32.798Z,25.00
2023-02-25T00:58:32.253Z,25.00
2023-02-25T00:59:32.239Z,25.00
2023-02-25T01:00:46.530Z,25.00
2023-02-25T01:01:32.263Z,0.00
2023-02-25T01:03:32.214Z,0.00
2023-02-25T01:04:32.801Z,0.00
2023-02-25T01:05:33.018Z,0.00
2023-02-25T01:06:32.173Z,0.00
2023-02-25T01:07:32.798Z,0.00
2023-02-25T01:08:32.153Z,0.00
2023-02-25T01:09:32.800Z,0.00
2023-02-25T01:10:32.799Z,0.00
2023-02-25T01:11:32.155Z,0.00
2023-02-25T01:12:32.126Z,0.00
2023-02-25T01:13:32.155Z,9.17
2023-02-25T01:14:32.793Z,27.87
2023-02-25T01:15:32.090Z,26.06
2023-02-25T01:16:32.933Z,25.77
2023-02-25T01:17:32.067Z,26.35
2023-02-25T01:18:32.057Z,28.03
2023-02-25T01:19:32.047Z,28.85
2023-02-25T01:20:32.042Z,25.00
2023-02-25T01:21:32.029Z,26.76
2023-02-25T01:22:32.023Z,29.16
2023-02-25T01:23:32.800Z,25.24
2023-02-25T01:24:32.005Z,26.66
2023-02-25T01:25:31.995Z,25.61
2023-02-25T01:26:31.982Z,30.57
2023-02-25T01:27:32.005Z,27.67
2023-02-25T01:28:31.963Z,28.15
2023-02-25T01:29:31.954Z,25.89
2023-02-25T01:30:31.958Z,25.76
2023-02-25T01:31:33.032Z,29.20
2023-02-25T01:32:32.001Z,28.43
2023-02-25T01:33:31.918Z,27.21
2023-02-25T01:34:31.964Z,27.22
2023-02-25T01:35:31.926Z,28.49
2023-02-25T01:36:31.890Z,25.57
2023-02-25T01:37:32.805Z,27.28
2023-02-25T01:38:31.869Z,28.52
2023-02-25T01:39:31.873Z,27.82
2023-02-25T01:40:31.853Z,26.50
2023-02-25T01:41:32.809Z,28.40
2023-02-25T01:42:31.835Z,25.63
2023-02-25T01:43:31.938Z,27.19
2023-02-25T01:44:31.820Z,29.81
2023-02-25T01:45:31.820Z,26.60
2023-02-25T01:46:31.858Z,28.44
2023-02-25T01:47:31.791Z,27.25
2023-02-25T01:48:31.800Z,29.11
2023-02-25T01:49:31.780Z,26.58
2023-02-25T01:50:31.772Z,25.42
2023-02-25T01:51:31.823Z,28.40
2023-02-25T01:52:31.745Z,25.00
2023-02-25T01:53:31.740Z,28.97
2023-02-25T01:54:31.725Z,26.26
2023-02-25T01:55:31.732Z,27.40
2023-02-25T01:56:31.713Z,28.68
2023-02-25T01:57:31.699Z,28.70
2023-02-25T01:58:31.695Z,27.95
2023-02-25T01:59:31.706Z,28.01
2023-02-25T02:00:31.722Z,27.03
2023-02-25T02:01:31.662Z,27.44
2023-02-25T02:02:31.703Z,27.38
2023-02-25T02:04:31.646Z,27.90
2023-02-25T02:06:31.826Z,28.03
2023-02-25T02:07:31.610Z,28.02
2023-02-25T02:08:31.597Z,28.75
2023-02-25T02:09:31.588Z,26.07
2023-02-25T02:11:31.632Z,28.00
2023-02-25T02:12:31.563Z,28.30
2023-02-25T02:13:31.551Z,28.02
2023-02-25T02:14:31.538Z,27.77
2023-02-25T02:15:31.565Z,27.19
2023-02-25T02:16:31.582Z,27.29
2023-02-25T02:17:31.516Z,27.73
2023-02-25T02:18:31.501Z,26.99
2023-02-25T02:19:31.497Z,27.91
2023-02-25T02:21:31.513Z,28.08
2023-02-25T02:22:31.475Z,28.37
2023-02-25T02:23:31.458Z,28.21
2023-02-25T02:24:31.447Z,27.54
2023-02-25T02:25:31.440Z,26.86
2023-02-25T02:26:31.427Z,27.28
2023-02-25T02:27:31.418Z,27.30
2023-02-25T02:29:32.329Z,27.80
2023-02-25T02:30:31.434Z,28.26
2023-02-25T02:31:31.486Z,27.85
2023-02-25T02:32:31.467Z,27.87
2023-02-25T02:34:31.359Z,27.75
2023-02-25T02:35:31.352Z,27.84
2023-02-25T02:36:31.333Z,28.11
2023-02-25T02:37:31.330Z,27.76
2023-02-25T02:38:31.316Z,27.77
2023-02-25T02:39:31.309Z,28.46
2023-02-25T02:40:31.298Z,26.31
2023-02-25T02:41:31.287Z,25.60
2023-02-25T02:42:31.293Z,26.30
2023-02-25T02:43:31.299Z,29.18
2023-02-25T02:44:31.263Z,26.29
2023-02-25T02:45:31.260Z,27.54
2023-02-25T02:46:31.247Z,28.75
2023-02-25T02:47:31.256Z,28.30
2023-02-25T02:48:31.227Z,29.31
2023-02-25T02:49:31.218Z,28.87
2023-02-25T02:50:31.214Z,28.41
2023-02-25T02:51:31.215Z,30.33
2023-02-25T02:52:31.200Z,28.12
2023-02-25T02:53:31.189Z,28.38
2023-02-25T02:54:31.166Z,28.53
2023-02-25T02:55:31.159Z,28.38
2023-02-25T02:56:31.157Z,26.28
2023-02-25T02:57:31.137Z,28.37
2023-02-25T02:58:31.129Z,27.16
2023-02-25T02:59:31.182Z,26.80
2023-02-25T03:00:31.116Z,31.31
2023-02-25T03:01:31.134Z,27.91
2023-02-25T03:02:31.091Z,30.12
2023-02-25T03:03:31.179Z,29.11
2023-02-25T03:04:31.065Z,27.51
2023-02-25T03:05:31.064Z,26.70
2023-02-25T03:06:31.049Z,28.30
2023-02-25T03:07:31.043Z,28.70
2023-02-25T03:08:31.025Z,30.32
2023-02-25T03:09:31.018Z,30.93
2023-02-25T03:10:31.022Z,27.52
2023-02-25T03:11:31.009Z,29.28
2023-02-25T03:12:31.033Z,31.25
2023-02-25T03:13:30.986Z,27.37
2023-02-25T03:14:30.977Z,28.70
2023-02-25T03:15:30.975Z,26.33
2023-02-25T03:16:31.053Z,28.84
2023-02-25T03:17:30.943Z,30.40
2023-02-25T03:18:30.934Z,29.13
2023-02-25T03:19:30.949Z,27.85
2023-02-25T03:20:30.933Z,27.85
2023-02-25T03:21:30.925Z,28.91
2023-02-25T03:22:30.904Z,30.60
2023-02-25T03:23:30.894Z,30.01
2023-02-25T03:24:30.882Z,31.58
2023-02-25T03:25:30.879Z,30.31
2023-02-25T03:26:30.867Z,29.56
2023-02-25T03:27:30.857Z,30.95
2023-02-25T03:28:30.875Z,29.45
2023-02-25T03:29:30.849Z,28.66
2023-02-25T03:30:30.912Z,28.53
2023-02-25T03:31:30.903Z,28.29
2023-02-25T03:32:31.030Z,29.67
2023-02-25T03:33:30.801Z,29.00
2023-02-25T03:34:30.857Z,30.06
2023-02-25T03:35:30.855Z,29.48
2023-02-25T03:37:30.864Z,28.22
2023-02-25T03:38:30.758Z,28.55
2023-02-25T03:39:30.753Z,28.39
2023-02-25T03:40:30.740Z,28.24
2023-02-25T03:41:31.361Z,30.00
2023-02-25T03:42:30.725Z,31.35
2023-02-25T03:43:30.718Z,33.00
2023-02-25T03:45:30.691Z,31.05
2023-02-25T03:46:30.748Z,30.20
2023-02-25T03:47:30.884Z,30.99
2023-02-25T03:48:30.672Z,28.87
2023-02-25T03:49:30.663Z,29.65
2023-02-25T03:51:30.658Z,28.86
2023-02-25T03:52:30.631Z,28.94
2023-02-25T03:53:32.306Z,29.39
2023-02-25T03:54:30.652Z,28.81
2023-02-25T03:55:30.602Z,29.32
2023-02-25T03:56:30.593Z,28.86
2023-02-25T03:57:30.579Z,30.35
2023-02-25T04:00:30.561Z,29.02
2023-02-25T04:01:30.538Z,29.05
2023-02-25T04:02:30.630Z,29.05
2023-02-25T04:03:30.519Z,29.53
2023-02-25T04:04:30.644Z,27.88
2023-02-25T04:05:30.501Z,28.63
2023-02-25T04:06:30.529Z,29.96
2023-02-25T04:07:30.490Z,26.81
2023-02-25T04:08:30.878Z,28.55
2023-02-25T04:09:30.468Z,29.28
2023-02-25T04:10:30.456Z,28.18
2023-02-25T04:11:30.445Z,28.82
2023-02-25T04:12:30.439Z,28.03
2023-02-25T04:13:30.427Z,28.48
2023-02-25T04:14:30.414Z,26.28
2023-02-25T04:15:30.930Z,27.75
2023-02-25T04:16:30.401Z,27.86
2023-02-25T04:17:30.389Z,28.06
2023-02-25T04:18:30.401Z,25.34
2023-02-25T04:19:30.373Z,27.81
2023-02-25T04:20:30.361Z,27.92
2023-02-25T04:21:30.396Z,29.13
2023-02-25T04:22:30.392Z,30.65
2023-02-25T04:23:30.870Z,30.76
2023-02-25T04:24:30.325Z,29.43
2023-02-25T04:25:30.318Z,29.20
2023-02-25T04:26:30.877Z,28.42
2023-02-25T04:27:30.297Z,29.52
2023-02-25T04:28:30.284Z,31.70
2023-02-25T04:31:31.072Z,29.43
2023-02-25T04:32:30.501Z,29.59
2023-02-25T04:33:30.241Z,30.87
2023-02-25T04:34:30.229Z,29.86
2023-02-25T04:35:30.224Z,31.04
2023-02-25T04:37:30.390Z,29.46
2023-02-25T04:38:30.221Z,29.95
2023-02-25T04:40:30.182Z,31.12
2023-02-25T04:41:30.178Z,31.29
2023-02-25T04:42:30.160Z,29.61
2023-02-25T04:43:30.149Z,29.37
2023-02-25T04:44:30.381Z,27.10
2023-02-25T04:45:30.138Z,26.11
2023-02-25T04:46:30.152Z,29.10
2023-02-25T04:47:30.403Z,30.20
2023-02-25T04:48:30.110Z,28.88
2023-02-25T04:49:30.103Z,29.61
2023-02-25T04:50:30.086Z,27.09
2023-02-25T04:52:30.082Z,28.33
2023-02-25T04:54:30.071Z,31.41
2023-02-25T04:55:30.037Z,28.05
2023-02-25T04:56:30.030Z,29.05
2023-02-25T04:57:30.027Z,28.65
2023-02-25T04:59:30.004Z,29.20
2023-02-25T05:00:29.993Z,30.54
2023-02-25T05:01:30.013Z,29.85
2023-02-25T05:02:29.978Z,28.85
2023-02-25T05:03:29.966Z,31.14
2023-02-25T05:04:30.024Z,29.15
2023-02-25T05:05:29.946Z,29.69
2023-02-25T05:06:29.939Z,28.65
2023-02-25T05:08:29.924Z,32.01
2023-02-25T05:09:29.911Z,28.39
2023-02-25T05:10:30.430Z,30.98
2023-02-25T05:11:29.910Z,30.37
2023-02-25T05:12:29.883Z,27.17
2023-02-25T05:14:32.505Z,29.82
2023-02-25T05:15:29.893Z,29.98
2023-02-25T05:16:30.512Z,30.22
2023-02-25T05:17:29.832Z,31.05
2023-02-25T05:18:29.827Z,30.59
2023-02-25T05:19:29.821Z,32.26
2023-02-25T05:20:29.961Z,30.49
2023-02-25T05:21:29.804Z,29.11
2023-02-25T05:22:29.787Z,30.26
2023-02-25T05:23:29.781Z,29.93
2023-02-25T05:24:29.900Z,31.29
2023-02-25T05:26:29.776Z,30.41
2023-02-25T05:28:29.732Z,29.27
2023-02-25T05:29:29.894Z,29.98
2023-02-25T05:30:29.717Z,30.29
2023-02-25T05:31:29.844Z,30.43
2023-02-25T05:32:29.853Z,31.65
2023-02-25T05:34:29.673Z,30.85
2023-02-25T05:35:29.678Z,32.12
2023-02-25T05:36:30.090Z,30.95
2023-02-25T05:37:29.649Z,31.71
2023-02-25T05:38:29.637Z,30.57
2023-02-25T05:39:29.630Z,30.75
2023-02-25T05:40:29.626Z,30.40
2023-02-25T05:41:29.611Z,29.21
2023-02-25T05:43:29.590Z,30.00
2023-02-25T05:45:29.590Z,30.67
2023-02-25T05:46:29.601Z,28.07
2023-02-25T05:47:29.552Z,29.52
2023-02-25T05:48:29.547Z,27.09
2023-02-25T05:49:29.535Z,29.68
2023-02-25T05:50:29.527Z,31.66
2023-02-25T05:51:29.518Z,33.30
2023-02-25T05:52:29.503Z,29.80
2023-02-25T05:53:29.502Z,27.39
2023-02-25T05:55:29.485Z,28.63
2023-02-25T05:58:29.474Z,31.13
2023-02-25T05:59:29.436Z,29.84
2023-02-25T06:00:29.431Z,28.38
2023-02-25T06:02:29.415Z,29.83
2023-02-25T06:03:29.457Z,27.83
2023-02-25T06:04:29.435Z,29.51
2023-02-25T06:05:29.389Z,31.26
2023-02-25T06:06:29.384Z,28.16
2023-02-25T06:09:29.345Z,26.63
2023-02-25T06:10:29.342Z,27.13
2023-02-25T06:11:29.330Z,27.71
2023-02-25T06:12:29.317Z,29.53
2023-02-25T06:13:29.309Z,28.51
2023-02-25T06:14:29.328Z,29.49
2023-02-25T06:15:29.321Z,30.20
2023-02-25T06:16:29.354Z,29.16
2023-02-25T06:17:29.275Z,28.70
2023-02-25T06:18:29.260Z,29.38
2023-02-25T06:19:29.258Z,28.82
2023-02-25T06:20:29.241Z,28.53
2023-02-25T06:21:29.249Z,28.03
2023-02-25T06:22:29.221Z,29.57
2023-02-25T06:23:29.213Z,30.63
2023-02-25T06:24:29.208Z,30.21
2023-02-25T06:25:29.205Z,28.72
2023-02-25T06:26:29.187Z,30.17
2023-02-25T06:29:29.159Z,31.51
2023-02-25T06:30:29.233Z,28.22
2023-02-25T06:31:29.157Z,28.56
2023-02-25T06:32:29.302Z,26.92
2023-02-25T06:33:29.124Z,29.55
2023-02-25T06:34:29.116Z,29.22
2023-02-25T06:35:29.113Z,30.06
2023-02-25T06:36:29.103Z,27.11
2023-02-25T06:37:29.085Z,29.22
2023-02-25T06:38:29.076Z,29.62
2023-02-25T06:39:29.073Z,28.87
2023-02-25T06:40:29.061Z,29.00
2023-02-25T06:41:29.149Z,29.45
2023-02-25T06:42:29.042Z,28.37
2023-02-25T06:44:29.029Z,28.38
2023-02-25T06:46:29.156Z,27.82
2023-02-25T06:47:28.990Z,29.26
2023-02-25T06:49:28.973Z,27.89
2023-02-25T06:50:28.966Z,30.24
2023-02-25T06:51:28.953Z,28.37
2023-02-25T06:52:28.950Z,25.48
2023-02-25T06:53:28.940Z,27.28
2023-02-25T06:54:28.927Z,29.90
2023-02-25T06:55:28.922Z,28.84
2023-02-25T06:56:28.910Z,26.41
2023-02-25T06:57:28.900Z,27.55
2023-02-25T06:58:28.891Z,29.36
2023-02-25T06:59:28.890Z,28.22
2023-02-25T07:00:28.874Z,29.30
2023-02-25T07:01:28.931Z,28.83
2023-02-25T07:02:28.894Z,29.05
2023-02-25T07:03:28.845Z,28.02
2023-02-25T07:04:28.901Z,27.26
2023-02-25T07:05:28.825Z,28.36
2023-02-25T07:07:28.813Z,27.86
2023-02-25T07:09:28.933Z,26.51
2023-02-25T07:10:28.792Z,27.42
2023-02-25T07:11:28.952Z,27.54
2023-02-25T07:12:28.764Z,30.27
2023-02-25T07:13:28.762Z,27.58
2023-02-25T07:14:28.742Z,25.27
2023-02-25T07:15:28.777Z,27.48
2023-02-25T07:16:28.731Z,29.37
2023-02-25T07:17:28.710Z,29.03
2023-02-25T07:18:28.959Z,27.64
2023-02-25T07:25:28.998Z,28.57
2023-02-25T07:53:28.388Z,26.33
2023-02-25T07:54:28.371Z,30.40
2023-02-25T07:55:28.948Z,27.76
2023-02-25T07:57:28.352Z,29.83
2023-02-25T07:58:28.954Z,29.56
2023-02-25T08:00:28.318Z,26.91
2023-02-25T08:01:28.337Z,28.79
2023-02-25T08:02:28.380Z,28.45
2023-02-25T08:03:28.477Z,28.71
2023-02-25T08:04:28.351Z,29.38
2023-02-25T08:05:28.276Z,27.77
2023-02-25T08:06:28.301Z,26.95
2023-02-25T08:07:28.954Z,29.91
2023-02-25T08:09:28.954Z,27.41
2023-02-25T08:11:28.232Z,28.35
2023-02-25T08:12:28.222Z,29.76
2023-02-25T08:13:28.199Z,27.60
2023-02-25T08:14:28.202Z,27.19
2023-02-25T08:15:28.206Z,29.11
2023-02-25T08:16:28.184Z,31.41
2023-02-25T08:18:28.965Z,29.06
2023-02-25T08:20:28.212Z,29.55
2023-02-25T08:21:28.139Z,29.14
2023-02-25T08:22:28.145Z,28.94
2023-02-25T08:24:28.097Z,29.48
2023-02-25T08:25:28.093Z,29.11
2023-02-25T08:26:28.080Z,31.59
2023-02-25T08:27:28.069Z,28.80
2023-02-25T08:28:31.074Z,30.37
2023-02-25T08:30:28.089Z,30.39
2023-02-25T08:31:28.728Z,29.15
2023-02-25T08:32:28.198Z,27.97
2023-02-25T08:33:28.052Z,30.27
2023-02-25T08:34:28.043Z,29.48
2023-02-25T08:35:28.967Z,27.16
2023-02-25T08:37:28.004Z,29.45
2023-02-25T08:39:27.995Z,30.16
2023-02-25T08:40:28.971Z,29.45
2023-02-25T08:46:28.050Z,28.78
2023-02-25T11:25:33.063Z,32.03
2023-02-25T12:29:40.553Z,28.61
2023-02-25T12:57:40.564Z,28.00
2023-02-25T14:02:25.123Z,27.51
2023-02-25T14:03:25.004Z,27.17
2023-02-25T14:04:24.995Z,26.68
2023-02-25T14:05:24.992Z,29.14
2023-02-25T14:06:24.976Z,27.31
2023-02-25T14:07:24.971Z,26.18
2023-02-25T14:08:25.102Z,27.74
2023-02-25T14:09:24.955Z,27.23
2023-02-25T14:10:24.947Z,27.72
2023-02-25T14:11:25.274Z,27.70
2023-02-25T14:12:24.935Z,26.37
2023-02-25T14:13:24.914Z,30.85
2023-02-25T14:14:24.947Z,27.23
2023-02-25T14:15:24.888Z,27.45
2023-02-25T14:16:24.887Z,27.35
2023-02-25T14:17:24.873Z,26.69
2023-02-25T14:18:24.867Z,28.80
2023-02-25T14:19:24.863Z,27.97
2023-02-25T14:20:24.856Z,30.14
2023-02-25T14:21:25.122Z,28.95
2023-02-25T14:22:24.823Z,25.83
2023-02-25T14:23:24.822Z,26.16
2023-02-25T14:24:24.805Z,27.91
2023-02-25T14:25:24.800Z,26.16
2023-02-25T14:26:24.799Z,26.16
2023-02-25T14:27:24.787Z,28.15
2023-02-25T14:28:24.784Z,28.30
2023-02-25T14:29:24.761Z,26.31
2023-02-25T14:30:24.882Z,28.60
2023-02-25T14:31:25.105Z,27.57
2023-02-25T14:32:24.763Z,28.88
2023-02-25T14:33:24.734Z,28.99
2023-02-25T14:34:24.722Z,28.53
2023-02-25T14:35:24.706Z,28.57
2023-02-25T14:36:24.699Z,28.02
2023-02-25T14:37:24.690Z,27.18
2023-02-25T14:38:24.681Z,28.80
2023-02-25T14:39:24.672Z,29.56
2023-02-25T14:40:24.656Z,29.38
2023-02-25T14:41:24.994Z,29.60
2023-02-25T14:42:24.637Z,28.78
2023-02-25T14:43:24.635Z,28.39
2023-02-25T14:44:24.629Z,28.32
2023-02-25T14:45:24.606Z,30.14
2023-02-25T14:46:24.673Z,28.46
2023-02-25T14:47:24.611Z,29.45
2023-02-25T15:41:45.084Z,28.99
2023-02-25T15:44:24.057Z,32.10
2023-02-25T16:12:23.798Z,28.80
2023-02-25T16:13:23.783Z,28.22
2023-02-25T16:14:23.780Z,26.96
2023-02-25T16:15:23.764Z,29.53
2023-02-25T16:16:23.770Z,28.11
2023-02-25T16:17:23.749Z,26.99
2023-02-25T16:18:23.741Z,28.02
2023-02-25T16:19:23.741Z,28.22
2023-02-25T16:20:23.727Z,29.43
2023-02-25T16:21:24.410Z,27.22
2023-02-25T16:22:23.730Z,28.00
2023-02-25T16:23:23.702Z,26.93
2023-02-25T16:24:23.688Z,26.36
2023-02-25T16:25:23.684Z,27.54
2023-02-25T16:26:23.688Z,27.74
2023-02-25T16:27:23.659Z,26.85
2023-02-25T16:28:23.646Z,28.30
2023-02-25T16:29:23.685Z,26.53
2023-02-25T16:30:23.633Z,27.23
2023-02-25T16:31:24.058Z,26.56
2023-02-25T16:32:23.811Z,28.27
2023-02-25T16:33:23.599Z,27.00
2023-02-25T16:34:23.627Z,27.90
2023-02-25T16:35:23.583Z,27.12
2023-02-25T16:36:23.580Z,25.63
2023-02-25T16:37:23.564Z,27.37
2023-02-25T16:38:23.581Z,26.32
2023-02-25T16:39:23.550Z,28.13
2023-02-25T16:40:24.148Z,26.21
2023-02-25T16:41:30.302Z,27.85
2023-02-25T16:42:44.517Z,28.09
2023-02-25T16:43:23.511Z,29.25
2023-02-25T16:44:23.514Z,30.23
2023-02-25T16:45:23.490Z,31.34
2023-02-25T16:46:23.476Z,30.88
2023-02-25T16:47:23.475Z,30.03
2023-02-25T16:48:23.464Z,30.84
2023-02-25T16:49:23.456Z,29.04
2023-02-25T16:50:23.440Z,27.15
2023-02-25T16:51:23.879Z,26.81
2023-02-25T16:52:23.425Z,28.85
2023-02-25T16:53:23.419Z,26.16
2023-02-25T16:54:23.431Z,28.03
2023-02-25T16:55:23.397Z,27.74
2023-02-25T16:56:23.783Z,27.54
2023-02-25T16:57:23.385Z,26.36
2023-02-25T16:58:23.372Z,28.75
2023-02-25T16:59:24.193Z,30.04
2023-02-25T17:00:23.370Z,29.45
2023-02-25T17:01:23.431Z,28.23
2023-02-25T17:02:23.339Z,25.91
2023-02-25T17:03:23.411Z,26.25
2023-02-25T17:04:23.318Z,28.80
2023-02-25T17:05:23.339Z,28.19
2023-02-25T17:06:23.673Z,28.87
2023-02-25T17:07:23.282Z,27.18
2023-02-25T17:08:23.330Z,28.22
2023-02-25T17:09:23.265Z,27.19
2023-02-25T17:10:23.278Z,27.16
2023-02-25T17:11:23.250Z,28.34
2023-02-25T17:12:23.235Z,25.69
2023-02-25T17:13:23.233Z,26.79
2023-02-25T17:14:23.214Z,29.38
2023-02-25T17:15:23.206Z,28.34
2023-02-25T17:16:23.708Z,27.02
2023-02-25T17:17:23.193Z,25.55
2023-02-25T17:18:23.195Z,28.42
2023-02-25T17:19:23.182Z,29.82
2023-02-25T17:20:23.168Z,28.99
2023-02-25T17:21:23.157Z,29.58
2023-02-25T17:22:23.144Z,30.04
2023-02-25T17:23:23.132Z,31.91
2023-02-25T17:24:23.125Z,25.69
2023-02-25T17:25:23.125Z,27.59
2023-02-25T17:26:23.524Z,28.19
2023-02-25T17:27:23.099Z,29.16
2023-02-25T17:28:23.093Z,28.28
2023-02-25T17:29:23.662Z,26.73
2023-02-25T17:30:23.076Z,28.91
2023-02-25T17:31:23.173Z,28.38
2023-02-25T17:32:23.114Z,28.60
2023-02-25T17:33:25.765Z,28.18
2023-02-25T17:34:23.039Z,28.42
2023-02-25T17:35:23.022Z,28.71
2023-02-25T17:36:23.429Z,28.71
2023-02-25T17:37:23.013Z,29.30
2023-02-25T17:38:39.128Z,31.15
2023-02-25T17:39:22.997Z,29.32
2023-02-25T17:40:22.982Z,29.99
2023-02-25T17:41:22.969Z,30.46
2023-02-25T17:42:22.987Z,31.77
2023-02-25T17:43:22.957Z,31.39
2023-02-25T17:44:22.943Z,30.12
2023-02-25T17:45:22.932Z,28.98
2023-02-25T17:46:23.456Z,27.15
2023-02-25T17:47:22.981Z,29.91
2023-02-25T17:48:22.906Z,31.12
2023-02-25T17:49:22.895Z,27.94
2023-02-25T17:50:22.896Z,25.00
2023-02-25T17:51:22.874Z,28.32
2023-02-25T17:52:22.869Z,26.36
2023-02-25T17:53:22.861Z,27.43
2023-02-25T17:54:22.853Z,29.08
2023-02-25T17:55:22.837Z,28.45
2023-02-25T17:56:23.381Z,29.95
2023-02-25T17:57:22.824Z,29.12
2023-02-25T17:58:22.841Z,26.28
2023-02-25T17:59:22.803Z,27.14
2023-02-25T18:00:22.796Z,28.76
2023-02-25T18:01:22.844Z,29.64
2023-02-25T18:02:22.896Z,29.54
2023-02-25T18:03:22.766Z,27.83
2023-02-25T18:04:22.755Z,28.45
2023-02-25T18:05:22.762Z,28.96
2023-02-25T18:06:23.161Z,28.74
2023-02-25T18:07:22.728Z,30.67
2023-02-25T18:08:22.754Z,29.10
2023-02-25T18:09:22.707Z,25.75
2023-02-25T18:10:22.699Z,29.15
2023-02-25T18:11:22.700Z,28.69
2023-02-25T18:12:22.709Z,29.76
2023-02-25T18:13:22.828Z,29.33
2023-02-25T18:14:22.692Z,28.55
2023-02-25T18:18:23.189Z,29.12
2023-02-25T18:38:23.205Z,29.49
2023-02-25T18:40:23.186Z,28.81
2023-02-25T18:57:23.188Z,29.01
2023-02-25T19:16:23.156Z,27.83
2023-02-25T20:26:36.232Z,32.53
2023-02-25T21:05:23.782Z,30.51
2023-02-25T21:09:44.768Z,29.77
2023-02-25T21:39:44.263Z,28.32
2023-02-25T22:19:35.271Z,31.42
2023-02-25T23:01:26.887Z,28.73
